createdAt,value
2022-09-03T00:10:03.171Z,100311.00
2022-09-03T00:20:17.034Z,100307.19
2022-09-03T00:30:19.266Z,100307.78
2022-09-03T00:40:42.502Z,100306.53
2022-09-03T00:51:02.723Z,100297.66
2022-09-03T01:01:15.611Z,100301.06
2022-09-03T01:11:30.669Z,100308.03
2022-09-03T01:21:55.417Z,100309.56
2022-09-03T01:32:15.713Z,100309.00
2022-09-03T01:42:23.747Z,100301.94
2022-09-03T01:52:26.287Z,100290.78
2022-09-03T02:02:28.863Z,100295.97
2022-09-03T02:12:37.292Z,100287.44
2022-09-03T02:22:40.811Z,100281.53
2022-09-03T02:32:43.074Z,100275.13
2022-09-03T02:42:47.118Z,100283.25
2022-09-03T02:52:49.086Z,100279.75
2022-09-03T03:02:50.844Z,100276.25
2022-09-03T03:12:52.595Z,100270.94
2022-09-03T03:22:54.321Z,100272.47
2022-09-03T03:32:57.184Z,100269.91
2022-09-03T03:42:58.950Z,100274.59
2022-09-03T03:53:01.134Z,100267.84
2022-09-03T04:03:04.417Z,100276.41
2022-09-03T04:13:06.045Z,100268.78
2022-09-03T04:23:08.573Z,100265.22
2022-09-03T04:33:15.977Z,100254.59
2022-09-03T04:43:18.124Z,100265.97
2022-09-03T04:53:19.911Z,100270.16
2022-09-03T05:03:22.343Z,100270.06
2022-09-03T05:13:23.989Z,100276.56
2022-09-03T05:23:26.399Z,100271.88
2022-09-03T05:33:28.468Z,100262.03
2022-09-03T05:43:31.207Z,100271.19
2022-09-03T05:53:34.986Z,100271.81
2022-09-03T06:03:37.426Z,100278.63
2022-09-03T06:13:39.360Z,100293.25
2022-09-03T06:23:46.701Z,100291.97
2022-09-03T06:33:48.891Z,100293.59
2022-09-03T06:44:03.411Z,100289.28
2022-09-03T06:54:10.807Z,100294.91
2022-09-03T07:04:16.105Z,100310.19
2022-09-03T07:14:20.007Z,100323.88
2022-09-03T07:24:22.489Z,100334.81
2022-09-03T07:34:25.467Z,100331.09
2022-09-03T07:44:28.672Z,100330.38
2022-09-03T07:54:31.558Z,100345.38
2022-09-03T08:04:33.971Z,100349.09
2022-09-03T08:14:35.922Z,100349.03
2022-09-03T08:24:38.592Z,100351.78
2022-09-03T08:34:40.541Z,100347.22
2022-09-03T08:45:10.098Z,100348.50
2022-09-03T08:55:36.358Z,100354.94
2022-09-03T09:05:59.046Z,100350.44
2022-09-03T09:16:22.248Z,100349.13
2022-09-03T09:26:30.400Z,100350.88
2022-09-03T09:36:38.122Z,100356.28
2022-09-03T09:46:41.708Z,100348.31
2022-09-03T09:56:44.783Z,100336.31
2022-09-03T10:06:57.571Z,100341.91
2022-09-03T10:17:13.398Z,100352.28
2022-09-03T10:27:18.792Z,100345.38
2022-09-03T10:37:40.935Z,100346.28
2022-09-03T10:48:07.911Z,100329.44
2022-09-03T11:08:55.591Z,100337.19
2022-09-03T11:19:09.004Z,100324.75
2022-09-03T11:29:48.985Z,100311.09
2022-09-03T11:39:56.551Z,100304.59
2022-09-03T11:50:12.786Z,100301.06
2022-09-03T12:00:21.725Z,100278.22
2022-09-03T12:10:49.365Z,100278.81
2022-09-03T12:20:55.727Z,100268.38
2022-09-03T12:31:06.588Z,100269.44
2022-09-03T12:41:28.778Z,100260.97
2022-09-03T12:51:59.751Z,100248.59
2022-09-03T13:02:14.069Z,100251.38
2022-09-03T13:12:30.201Z,100236.41
2022-09-03T13:23:09.799Z,100227.81
2022-09-03T13:33:29.337Z,100233.34
2022-09-03T13:43:43.746Z,100233.03
2022-09-03T13:54:22.319Z,100232.50
2022-09-03T14:04:55.211Z,100233.31
2022-09-03T14:14:59.763Z,100228.78
2022-09-03T14:25:09.271Z,100221.66
2022-09-03T14:35:31.563Z,100229.34
2022-09-03T14:45:33.329Z,100248.16
2022-09-03T14:55:35.240Z,100241.25
2022-09-03T15:06:03.670Z,100240.28
2022-09-03T15:16:11.641Z,100241.66
2022-09-03T15:26:55.113Z,100251.91
2022-09-03T15:37:03.972Z,100282.81
2022-09-03T15:47:14.547Z,100292.97
2022-09-03T15:57:35.658Z,100295.59
2022-09-03T16:07:37.488Z,100324.56
2022-09-03T16:17:55.120Z,100319.44
2022-09-03T16:28:14.824Z,100310.28
2022-09-03T16:38:31.465Z,100322.06
2022-09-03T16:48:40.948Z,100331.63
2022-09-03T16:59:00.509Z,100337.59
2022-09-03T17:09:28.164Z,100355.94
2022-09-03T17:19:43.663Z,100359.00
2022-09-03T17:30:03.239Z,100353.16
2022-09-03T17:40:27.833Z,100354.19
2022-09-03T17:50:42.610Z,100375.50
2022-09-03T18:00:45.919Z,100373.50
2022-09-03T18:11:09.066Z,100374.94
2022-09-03T18:21:33.771Z,100391.19
2022-09-03T18:31:54.524Z,100403.38
2022-09-03T18:42:29.932Z,100413.03
2022-09-03T18:53:10.487Z,100422.31
2022-09-03T19:03:31.068Z,100439.16
2022-09-03T19:13:54.534Z,100460.25
2022-09-03T19:24:21.122Z,100460.34
2022-09-03T19:35:19.489Z,100472.91
2022-09-03T19:45:45.928Z,100484.03
2022-09-03T19:56:13.515Z,100494.19
2022-09-03T20:06:35.012Z,100506.47
2022-09-03T20:16:47.968Z,100513.25
2022-09-03T20:27:28.994Z,100518.38
2022-09-03T20:37:59.021Z,100526.09
2022-09-03T20:48:11.015Z,100523.97
2022-09-03T20:58:31.880Z,100523.88
2022-09-03T21:08:39.803Z,100526.56
2022-09-03T21:19:07.046Z,100534.03
2022-09-03T21:29:31.068Z,100539.78
2022-09-03T21:39:50.062Z,100541.19
2022-09-03T21:49:57.352Z,100545.44
2022-09-03T22:00:04.350Z,100555.03
2022-09-03T22:10:21.257Z,100553.25
2022-09-03T22:20:25.504Z,100559.97
2022-09-03T22:30:36.502Z,100551.78
2022-09-03T22:40:52.641Z,100546.47
2022-09-03T22:50:58.487Z,100560.56
2022-09-03T23:01:09.247Z,100569.16
2022-09-03T23:11:30.947Z,100577.34
2022-09-03T23:21:40.725Z,100580.88
2022-09-03T23:31:42.780Z,100588.94
2022-09-03T23:42:07.787Z,100593.13
2022-09-03T23:52:12.278Z,100600.25
